Time;durP1;ratioP1;P1;durP2;ratioP2;P2;SDS_P1;SDS_P2;PMS_P1;PMS_P2;Temp;Humidity;BMP_temperature;BMP_pressure;BME280_temperature;BME280_humidity;BME280_pressure;Samples;Min_cycle;Max_cycle;Signal;HPM_P1;HPM_P2
2023/03/13 00:01:36;;;;;;;17.98;3.13;;;;;;;14.00;100.00;100019.72;5044652;28;20045;-77
2023/03/13 00:04:03;;;;;;;5.68;1.92;;;;;;;14.08;100.00;100031.47;5046746;28;20060;-78
2023/03/13 00:06:33;;;;;;;18.55;4.38;;;;;;;13.92;100.00;100018.38;5044163;28;20048;-76
2023/03/13 00:09:01;;;;;;;12.73;3.10;;;;;;;14.16;100.00;100021.69;5044932;28;20063;-80
2023/03/13 00:11:28;;;;;;;17.77;3.70;;;;;;;14.12;100.00;100021.03;5031825;28;20044;-76
2023/03/13 00:13:57;;;;;;;15.50;4.47;;;;;;;14.07;100.00;100016.00;5048193;28;20044;-81
2023/03/13 00:16:23;;;;;;;14.32;3.60;;;;;;;14.25;100.00;99999.63;5045192;28;20041;-77
2023/03/13 00:18:52;;;;;;;15.25;2.78;;;;;;;13.97;100.00;100005.94;5045809;28;20064;-76
2023/03/13 00:21:21;;;;;;;8.68;2.30;;;;;;;13.90;100.00;100006.88;5042992;28;20079;-78
2023/03/13 00:23:48;;;;;;;11.90;2.47;;;;;;;13.83;100.00;99998.72;5041292;28;20053;-81
2023/03/13 00:26:17;;;;;;;7.30;2.42;;;;;;;13.94;100.00;100007.56;5043572;28;20041;-77
2023/03/13 00:28:45;;;;;;;6.18;1.13;;;;;;;13.82;100.00;99988.84;5042750;28;20524;-75
2023/03/13 00:31:20;;;;;;;20.90;3.45;;;;;;;13.67;100.00;99976.50;5045106;28;20049;-82
2023/03/13 00:33:50;;;;;;;10.45;2.28;;;;;;;13.55;100.00;99966.09;5042211;28;20052;-76
2023/03/13 00:36:18;;;;;;;10.63;3.05;;;;;;;13.41;100.00;99968.44;5045194;28;20116;-80
2023/03/13 00:38:45;;;;;;;11.55;2.40;;;;;;;13.15;100.00;99961.91;5056464;28;20053;-76
2023/03/13 00:41:15;;;;;;;14.93;2.38;;;;;;;12.82;100.00;99952.72;5046617;28;20053;-80
2023/03/13 00:43:43;;;;;;;11.40;2.65;;;;;;;12.37;100.00;99942.59;5038970;28;20060;-79
2023/03/13 00:46:11;;;;;;;10.48;3.03;;;;;;;12.39;100.00;99946.50;5044225;28;20080;-77
2023/03/13 00:48:38;;;;;;;14.43;4.90;;;;;;;15.07;97.58;100041.41;5042598;28;20056;-76
2023/03/13 00:51:06;;;;;;;11.82;2.95;;;;;;;12.43;100.00;100032.44;5045341;28;20713;-78
2023/03/13 00:53:33;;;;;;;13.30;3.22;;;;;;;21.24;48.92;100062.75;5046515;28;20057;-78
2023/03/13 00:56:05;;;;;;;17.67;3.20;;;;;;;12.85;100.00;100028.78;5047137;28;20052;-77
2023/03/13 00:58:34;;;;;;;15.18;1.73;;;;;;;12.85;100.00;100029.59;5044045;28;20094;-75
2023/03/13 01:01:13;;;;;;;2.00;1.30;;;;;;;13.03;100.00;100013.34;5042496;28;20391;-76
2023/03/13 01:03:41;;;;;;;4.40;1.33;;;;;;;11.54;100.00;100003.94;5045219;28;20066;-77
2023/03/13 01:06:12;;;;;;;3.75;1.23;;;;;;;11.61;100.00;99996.28;5045310;28;20045;-75
2023/03/13 01:08:38;;;;;;;24.63;4.10;;;;;;;11.67;100.00;99977.19;5044220;28;20055;-74
2023/03/13 01:11:11;;;;;;;29.75;5.28;;;;;;;18.51;93.65;99997.81;5044749;28;20049;-78
2023/03/13 01:13:38;;;;;;;28.60;5.07;;;;;;;15.99;100.00;99991.88;5046517;28;20145;-74
2023/03/13 01:16:13;;;;;;;27.00;4.03;;;;;;;16.16;100.00;99982.84;5043006;28;20419;-74
2023/03/13 01:18:43;;;;;;;9.88;2.05;;;;;;;15.00;100.00;99947.69;5044186;28;20056;-75
2023/03/13 01:21:10;;;;;;;15.88;2.50;;;;;;;15.09;100.00;99911.56;5043806;28;20835;-74
2023/03/13 01:23:37;;;;;;;19.92;3.88;;;;;;;15.41;100.00;99896.63;5048752;28;20054;-74
2023/03/13 01:26:05;;;;;;;29.15;5.10;;;;;;;15.25;100.00;99883.59;5044587;28;20041;-76
2023/03/13 01:28:32;;;;;;;11.30;1.85;;;;;;;20.11;84.62;99985.69;5040644;28;20059;-76
2023/03/13 01:31:00;;;;;;;15.00;2.30;;;;;;;18.72;93.21;99964.00;5046279;28;20060;-76
2023/03/13 01:33:26;;;;;;;17.58;3.55;;;;;;;14.18;100.00;99955.28;5046057;28;20049;-76
2023/03/13 01:36:00;;;;;;;31.00;4.38;;;;;;;26.32;53.72;99970.84;5050135;28;20057;-76
2023/03/13 01:38:27;;;;;;;15.82;3.08;;;;;;;19.05;76.81;99958.47;5046023;28;20056;-78
2023/03/13 01:40:53;;;;;;;15.98;3.67;;;;;;;14.62;89.33;99932.94;5046016;28;20053;-75
2023/03/13 01:43:25;;;;;;;16.17;3.60;;;;;;;14.59;83.41;99916.34;5047338;28;20064;-76
2023/03/13 01:45:53;;;;;;;8.20;2.97;;;;;;;18.76;71.07;99921.84;5047189;28;20053;-78
2023/03/13 01:48:25;;;;;;;3.55;1.40;;;;;;;15.41;87.58;99905.78;5063162;28;20088;-71
2023/03/13 01:50:54;;;;;;;22.63;2.15;;;;;;;14.07;92.02;99888.06;5062353;28;20056;-76
2023/03/13 01:53:21;;;;;;;29.75;4.18;;;;;;;14.16;91.35;99869.50;5046331;28;20469;-75
2023/03/13 01:55:48;;;;;;;20.27;4.00;;;;;;;20.11;68.24;99879.75;5045331;28;20510;-76
2023/03/13 01:58:15;;;;;;;14.60;3.08;;;;;;;15.77;76.37;99845.97;5047153;28;20059;-76
2023/03/13 02:00:42;;;;;;;15.20;2.92;;;;;;;15.76;53.38;99838.84;5048287;28;20091;-74
2023/03/13 02:03:13;;;;;;;15.45;3.15;;;;;;;16.10;54.05;99828.38;5047935;28;20057;-75
2023/03/13 02:05:41;;;;;;;3.33;2.05;;;;;;;15.72;56.71;99824.25;5045955;28;20061;-75
2023/03/13 02:08:17;;;;;;;10.85;2.20;;;;;;;20.24;46.08;99821.25;5046652;28;20049;-73
2023/03/13 02:10:50;;;;;;;32.20;4.13;;;;;;;-141.00;100.00;68116.28;5047389;28;20049;-75
2023/03/13 02:13:19;;;;;;;6.15;1.45;;;;;;;-141.00;100.00;68116.28;5047357;28;20064;-77
2023/03/13 02:15:47;;;;;;;17.52;3.78;;;;;;;-141.00;100.00;68116.28;5041840;28;20060;-78
2023/03/13 02:18:15;;;;;;;19.30;3.15;;;;;;;-141.00;100.00;68116.28;5046387;28;20049;-78
2023/03/13 02:20:42;;;;;;;9.20;1.90;;;;;;;-141.00;100.00;68116.28;5047053;28;20582;-78
2023/03/13 02:23:21;;;;;;;2.97;1.52;;;;;;;-141.00;100.00;68116.28;5045747;28;20045;-77
2023/03/13 02:25:50;;;;;;;18.85;4.07;;;;;;;33.51;29.42;100282.69;5037234;28;20076;-77
2023/03/13 02:28:22;;;;;;;19.95;4.15;;;;;;;26.63;36.62;100376.94;5046856;28;20057;-76
2023/03/13 02:30:50;;;;;;;2.50;1.33;;;;;;;16.79;45.48;100069.16;5047122;28;20051;-78
2023/03/13 02:33:19;;;;;;;7.93;1.80;;;;;;;16.32;32.58;100038.50;5046477;28;20063;-78
2023/03/13 02:35:48;;;;;;;30.05;4.32;;;;;;;16.09;32.60;100010.22;5044559;28;20056;-76
2023/03/13 02:38:21;;;;;;;8.68;2.03;;;;;;;-141.00;100.00;68116.28;5044954;28;20037;-75
2023/03/13 02:40:49;;;;;;;16.85;3.92;;;;;;;-141.00;100.00;68116.28;5045571;28;20057;-77
2023/03/13 02:43:23;;;;;;;16.48;3.50;;;;;;;16.72;32.69;99999.59;5040051;28;20045;-75
2023/03/13 02:46:13;;;;;;;26.45;5.25;;;;;;;15.41;33.07;99996.97;5045793;28;20056;-77
2023/03/13 02:48:41;;;;;;;8.50;2.38;;;;;;;-141.00;100.00;68116.28;5045043;28;20541;-75
2023/03/13 02:51:33;;;;;;;8.35;3.42;;;;;;;-141.00;100.00;68116.28;5044646;28;20053;-75
2023/03/13 02:54:23;;;;;;;14.57;3.90;;;;;;;-141.00;100.00;68116.28;5043874;28;20064;-74
2023/03/13 02:57:13;;;;;;;13.88;3.40;;;;;;;-141.00;100.00;68116.28;5044192;28;20073;-76
2023/03/13 03:00:01;;;;;;;8.73;3.10;;;;;;;-141.00;100.00;68116.28;5046504;28;20057;-76
2023/03/13 03:02:48;;;;;;;11.43;1.85;;;;;;;-141.00;100.00;68116.28;5027431;28;20270;-76
2023/03/13 03:05:35;;;;;;;13.43;2.63;;;;;;;-141.00;100.00;68116.28;5051837;28;20044;-77
2023/03/13 03:08:22;;;;;;;8.13;2.33;;;;;;;-141.00;100.00;68116.28;5049071;28;20514;-76
2023/03/13 03:11:09;;;;;;;6.13;1.58;;;;;;;-141.00;100.00;68116.28;5047506;28;20060;-76
2023/03/13 03:13:56;;;;;;;6.38;1.48;;;;;;;-141.00;100.00;68116.28;5060941;28;20048;-75
2023/03/13 03:16:43;;;;;;;6.40;1.88;;;;;;;-141.00;100.00;68116.28;5052411;28;20045;-78
2023/03/13 03:19:30;;;;;;;10.50;2.05;;;;;;;-141.00;100.00;68116.28;5055573;28;20158;-75
2023/03/13 03:22:17;;;;;;;3.92;1.48;;;;;;;-141.00;100.00;68116.28;5055867;28;20140;-76
2023/03/13 03:25:05;;;;;;;8.18;2.28;;;;;;;-141.00;100.00;68116.28;5049089;28;20079;-76
2023/03/13 03:27:52;;;;;;;3.10;1.08;;;;;;;-141.00;100.00;68116.28;5048326;28;20057;-76
2023/03/13 03:30:39;;;;;;;13.57;2.38;;;;;;;-141.00;100.00;68116.28;5051520;28;20048;-79
2023/03/13 03:33:26;;;;;;;5.93;1.33;;;;;;;-141.00;100.00;68116.28;5052824;28;20057;-75
2023/03/13 03:35:59;;;;;;;4.22;1.75;;;;;;;19.97;33.42;100023.66;5050469;28;20056;-77
2023/03/13 03:38:25;;;;;;;8.43;2.17;;;;;;;15.93;33.55;99988.09;5047819;28;20040;-76
2023/03/13 03:40:52;;;;;;;6.00;2.17;;;;;;;14.90;33.27;99965.50;5052034;28;20049;-74
2023/03/13 03:43:18;;;;;;;16.10;3.60;;;;;;;14.28;33.12;99946.66;5048096;28;20068;-77
2023/03/13 03:45:45;;;;;;;8.40;2.10;;;;;;;13.98;33.07;99926.84;5047928;28;20053;-76
2023/03/13 03:48:11;;;;;;;9.38;2.58;;;;;;;13.77;33.10;99907.94;5053178;28;20049;-76
2023/03/13 03:50:38;;;;;;;7.15;2.40;;;;;;;-141.00;100.00;68116.28;5054366;28;20148;-76
2023/03/13 03:53:04;;;;;;;12.27;3.33;;;;;;;-141.00;100.00;68116.28;5050132;28;20055;-75
2023/03/13 03:55:31;;;;;;;2.15;1.27;;;;;;;-141.00;100.00;68116.28;5049441;28;20052;-75
2023/03/13 03:58:00;;;;;;;5.15;1.75;;;;;;;13.94;33.15;99867.75;5047997;28;20372;-77
2023/03/13 04:00:27;;;;;;;7.28;2.65;;;;;;;13.79;33.33;99844.34;5052863;28;20045;-75
2023/03/13 04:02:54;;;;;;;5.40;1.75;;;;;;;-141.00;100.00;68116.28;5049679;28;20051;-75
2023/03/13 04:05:22;;;;;;;12.55;3.00;;;;;;;-141.00;100.00;68116.28;5048419;28;20060;-75
2023/03/13 04:07:57;;;;;;;3.20;1.08;;;;;;;-141.00;100.00;68116.28;5048583;28;20533;-76
2023/03/13 04:10:24;;;;;;;5.00;1.75;;;;;;;-141.00;100.00;68116.28;5045564;28;20049;-76
2023/03/13 04:12:50;;;;;;;10.70;2.53;;;;;;;-141.00;100.00;68116.28;5047084;28;20160;-77
2023/03/13 04:15:17;;;;;;;6.43;2.45;;;;;;;-141.00;100.00;68116.28;5049879;28;20071;-77
2023/03/13 04:17:43;;;;;;;4.38;1.48;;;;;;;-141.00;100.00;68116.28;5049219;28;20099;-76
2023/03/13 04:20:12;;;;;;;3.35;2.10;;;;;;;-141.00;100.00;68116.28;5055965;28;20049;-74
2023/03/13 04:22:41;;;;;;;12.50;2.58;;;;;;;-141.00;100.00;68116.28;5049221;28;20080;-78
2023/03/13 04:25:08;;;;;;;8.55;2.40;;;;;;;-141.00;100.00;68116.28;5048603;28;20135;-79
2023/03/13 04:27:35;;;;;;;2.83;1.40;;;;;;;-141.00;100.00;68116.28;5048554;28;20385;-76
2023/03/13 04:30:01;;;;;;;5.93;1.98;;;;;;;-141.00;100.00;68116.28;5055341;28;20072;-76
2023/03/13 04:32:28;;;;;;;8.85;2.35;;;;;;;-141.00;100.00;68116.28;5048291;28;20503;-78
2023/03/13 04:35:00;;;;;;;7.65;2.50;;;;;;;-141.00;100.00;68116.28;5048614;28;20144;-75
2023/03/13 04:37:26;;;;;;;4.35;1.20;;;;;;;-141.00;100.00;68116.28;5046546;28;20041;-78
2023/03/13 04:39:53;;;;;;;7.35;2.42;;;;;;;-141.00;100.00;68116.28;5040687;28;20053;-78
2023/03/13 04:42:20;;;;;;;11.10;2.30;;;;;;;-141.00;100.00;68116.28;5048283;28;20051;-76
2023/03/13 04:44:46;;;;;;;2.85;1.80;;;;;;;-141.00;100.00;68116.28;5047068;28;20713;-78
2023/03/13 04:47:13;;;;;;;4.88;1.50;;;;;;;-141.00;100.00;68116.28;5049219;28;20050;-75
2023/03/13 04:49:39;;;;;;;12.43;2.90;;;;;;;-141.00;100.00;68116.28;5044124;28;20629;-75
2023/03/13 04:52:06;;;;;;;5.88;2.63;;;;;;;-141.00;100.00;68116.28;5048230;28;20057;-75
2023/03/13 04:54:32;;;;;;;7.22;1.75;;;;;;;-141.00;100.00;68116.28;5047161;28;20048;-76
2023/03/13 04:56:59;;;;;;;2.00;1.30;;;;;;;-141.00;100.00;68116.28;5047778;28;20482;-76
2023/03/13 04:59:26;;;;;;;6.25;2.33;;;;;;;-141.00;100.00;68116.28;5046659;28;20045;-75
2023/03/13 05:01:52;;;;;;;6.03;1.73;;;;;;;-141.00;100.00;68116.28;5047242;28;20045;-76
2023/03/13 05:04:19;;;;;;;3.63;1.58;;;;;;;-141.00;100.00;68116.28;5047211;28;20593;-75
2023/03/13 05:06:45;;;;;;;0.57;0.57;;;;;;;-141.00;100.00;68116.28;5052101;28;20061;-75
2023/03/13 05:09:12;;;;;;;3.92;1.48;;;;;;;13.69;100.00;99517.41;5049524;28;20060;-76
2023/03/13 05:11:39;;;;;;;4.05;1.52;;;;;;;13.51;100.00;99528.31;5047838;28;20068;-76
2023/03/13 05:14:07;;;;;;;6.50;1.90;;;;;;;13.25;100.00;99560.88;5053251;28;20136;-75
2023/03/13 05:16:34;;;;;;;3.13;1.35;;;;;;;-141.00;100.00;68116.28;5049108;28;20049;-75
2023/03/13 05:19:09;;;;;;;2.28;1.17;;;;;;;13.30;100.00;99531.78;5048323;28;20050;-76
2023/03/13 05:21:36;;;;;;;;;;;;;;;-141.00;100.00;68116.28;5048218;28;20132;-74
2023/03/13 05:24:02;;;;;;;2.40;1.23;;;;;;;-141.00;100.00;68116.28;5048414;28;20326;-74
2023/03/13 05:26:29;;;;;;;4.03;1.77;;;;;;;-141.00;100.00;68116.28;5046878;28;20053;-75
2023/03/13 05:28:55;;;;;;;5.70;2.70;;;;;;;-141.00;100.00;68116.28;5061350;28;20051;-76
2023/03/13 05:31:22;;;;;;;6.22;2.10;;;;;;;-141.00;100.00;68116.28;5047732;28;20060;-75
2023/03/13 05:33:48;;;;;;;8.18;2.70;;;;;;;-141.00;100.00;68116.28;5047701;28;20057;-74
2023/03/13 05:36:15;;;;;;;4.80;1.63;;;;;;;-141.00;100.00;68116.28;5047474;28;20156;-78
2023/03/13 05:38:41;;;;;;;6.50;2.38;;;;;;;-141.00;100.00;68116.28;5047886;28;20053;-75
2023/03/13 05:41:08;;;;;;;6.22;2.65;;;;;;;-141.00;100.00;68116.28;5046518;28;20139;-76
2023/03/13 05:43:34;;;;;;;5.57;2.38;;;;;;;-141.00;100.00;68116.28;5046437;28;20071;-75
2023/03/13 05:46:01;;;;;;;10.45;2.70;;;;;;;13.83;100.00;99514.94;5041516;28;20058;-75
2023/03/13 05:48:27;;;;;;;8.25;2.55;;;;;;;-141.00;100.00;68116.28;5051809;28;20049;-76
2023/03/13 05:50:54;;;;;;;7.78;3.60;;;;;;;-141.00;100.00;68116.28;5049101;28;20131;-75
2023/03/13 05:53:21;;;;;;;4.60;1.90;;;;;;;14.83;100.00;99513.81;5048681;28;20049;-76
2023/03/13 05:55:47;;;;;;;6.15;2.67;;;;;;;13.91;100.00;99496.03;5047592;28;20052;-75
2023/03/13 05:58:14;;;;;;;12.13;4.00;;;;;;;-141.00;100.00;68116.28;5046856;28;20049;-76
2023/03/13 06:00:42;;;;;;;9.27;2.97;;;;;;;-141.00;100.00;68116.28;5046941;28;20499;-75
2023/03/13 06:03:08;;;;;;;5.38;2.03;;;;;;;-141.00;100.00;68116.28;5046202;28;20063;-75
2023/03/13 06:05:38;;;;;;;9.48;2.33;;;;;;;-141.00;100.00;68116.28;5041257;28;20041;-76
2023/03/13 06:08:06;;;;;;;6.32;2.92;;;;;;;-141.00;100.00;68116.28;5047670;28;20037;-76
2023/03/13 06:10:32;;;;;;;6.47;2.90;;;;;;;14.22;100.00;99481.06;5047419;28;20439;-76
2023/03/13 06:12:59;;;;;;;6.00;2.03;;;;;;;-141.00;100.00;68116.28;5048707;28;20075;-74
2023/03/13 06:15:53;;;;;;;8.35;3.60;;;;;;;14.04;100.00;99472.50;5048092;28;20052;-76
2023/03/13 06:18:20;;;;;;;14.93;4.43;;;;;;;-141.00;100.00;68116.28;5052982;28;20471;-75
2023/03/13 06:20:48;;;;;;;6.28;2.28;;;;;;;-141.00;100.00;68116.28;5045504;28;20474;-80
2023/03/13 06:23:15;;;;;;;8.02;2.40;;;;;;;-141.00;100.00;68116.28;5050128;28;20059;-78
2023/03/13 06:25:46;;;;;;;7.07;2.78;;;;;;;14.71;100.00;99470.09;5056381;28;20056;-75
2023/03/13 06:28:16;;;;;;;11.52;4.38;;;;;;;14.54;100.00;99480.66;5049399;28;20047;-79
2023/03/13 06:30:42;;;;;;;10.27;3.85;;;;;;;14.59;100.00;99480.09;5052135;28;20063;-78
2023/03/13 06:33:10;;;;;;;10.43;3.10;;;;;;;14.71;100.00;99476.47;5050995;28;20041;-77
2023/03/13 06:35:40;;;;;;;8.48;2.88;;;;;;;14.67;100.00;99492.53;5056661;28;20437;-77
2023/03/13 06:38:24;;;;;;;13.30;4.20;;;;;;;14.64;100.00;99464.81;5055595;28;20144;-78
2023/03/13 06:40:51;;;;;;;8.77;3.40;;;;;;;14.81;100.00;99474.50;5053074;28;20057;-77
2023/03/13 06:43:18;;;;;;;5.40;1.80;;;;;;;-141.00;100.00;68116.28;5054325;28;20080;-78
2023/03/13 06:45:45;;;;;;;7.50;2.42;;;;;;;-141.00;100.00;68116.28;5049769;28;20041;-76
2023/03/13 06:48:12;;;;;;;12.95;3.35;;;;;;;-141.00;100.00;68116.28;5053099;28;20120;-77
2023/03/13 06:50:39;;;;;;;8.38;2.78;;;;;;;-141.00;100.00;68116.28;5052319;28;20069;-78
2023/03/13 06:53:06;;;;;;;6.75;2.55;;;;;;;15.54;100.00;99501.50;5050448;28;20052;-75
2023/03/13 06:55:32;;;;;;;9.25;3.50;;;;;;;15.23;100.00;99481.97;5048204;28;20045;-77
2023/03/13 06:57:59;;;;;;;7.57;2.35;;;;;;;15.31;100.00;99497.22;5050221;28;20503;-76
2023/03/13 07:00:25;;;;;;;7.90;2.88;;;;;;;15.20;100.00;99490.50;5054359;28;20049;-75
2023/03/13 07:02:52;;;;;;;4.95;2.28;;;;;;;15.27;100.00;99496.56;5061530;28;20078;-76
2023/03/13 07:05:19;;;;;;;3.47;1.70;;;;;;;15.25;100.00;99501.81;5049336;28;20060;-75
2023/03/13 07:07:45;;;;;;;9.18;3.25;;;;;;;14.99;100.00;99489.28;5056562;28;20044;-76
2023/03/13 07:10:12;;;;;;;6.47;2.42;;;;;;;15.05;100.00;99479.13;5051315;28;20135;-76
2023/03/13 07:12:38;;;;;;;4.60;2.58;;;;;;;14.82;100.00;99476.81;5047697;28;20068;-78
2023/03/13 07:15:09;;;;;;;4.20;1.90;;;;;;;15.08;100.00;99489.34;5052243;28;20139;-74
2023/03/13 07:17:35;;;;;;;7.10;2.45;;;;;;;15.03;100.00;99473.25;5049437;28;20045;-76
2023/03/13 07:20:09;;;;;;;5.18;2.25;;;;;;;15.26;100.00;99486.66;5042773;28;20059;-75
2023/03/13 07:22:37;;;;;;;6.35;2.28;;;;;;;15.01;100.00;99472.91;5046254;28;20404;-77
2023/03/13 07:25:04;;;;;;;6.75;2.80;;;;;;;15.05;100.00;99456.06;5047849;28;20080;-75
2023/03/13 07:27:31;;;;;;;4.80;2.53;;;;;;;15.16;100.00;99473.91;5050202;28;20091;-76
2023/03/13 07:29:57;;;;;;;6.20;2.55;;;;;;;15.21;100.00;99450.25;5049309;28;20056;-76
2023/03/13 07:32:24;;;;;;;5.68;1.88;;;;;;;15.28;100.00;99441.59;5050762;28;20431;-76
2023/03/13 07:34:50;;;;;;;5.93;2.25;;;;;;;15.37;100.00;99438.88;5050032;28;20072;-76
2023/03/13 07:37:17;;;;;;;4.85;2.30;;;;;;;15.39;100.00;99450.34;5049454;28;20064;-78
2023/03/13 07:39:43;;;;;;;8.93;2.92;;;;;;;15.27;100.00;99454.78;5048503;28;20061;-77
2023/03/13 07:42:11;;;;;;;4.53;2.10;;;;;;;15.40;100.00;99437.97;5047424;28;20053;-73
2023/03/13 07:44:37;;;;;;;10.25;3.08;;;;;;;15.38;100.00;99437.63;5048641;28;20094;-76
2023/03/13 07:47:04;;;;;;;10.55;2.58;;;;;;;15.56;100.00;99445.28;5049100;28;20069;-75
2023/03/13 07:49:30;;;;;;;5.03;2.55;;;;;;;15.45;100.00;99432.56;5046552;28;20584;-78
2023/03/13 07:51:57;;;;;;;5.43;2.33;;;;;;;15.78;100.00;99434.78;5048607;28;20056;-79
2023/03/13 07:54:23;;;;;;;5.78;2.53;;;;;;;15.50;100.00;99431.19;5049817;28;20052;-75
2023/03/13 07:56:50;;;;;;;12.70;3.90;;;;;;;15.63;100.00;99439.41;5050576;28;20147;-76
2023/03/13 07:59:17;;;;;;;6.47;2.45;;;;;;;15.84;100.00;99436.50;5054637;28;20080;-76
2023/03/13 08:01:43;;;;;;;5.72;2.63;;;;;;;16.09;100.00;99432.63;5048019;28;20059;-77
2023/03/13 08:04:12;;;;;;;6.03;2.53;;;;;;;15.90;100.00;99436.66;5043288;28;20572;-76
2023/03/13 08:06:40;;;;;;;7.72;2.45;;;;;;;16.03;100.00;99423.34;5043454;28;20049;-77
2023/03/13 08:09:08;;;;;;;8.10;2.75;;;;;;;15.89;100.00;99421.19;5046399;28;20049;-76
2023/03/13 08:11:39;;;;;;;7.82;2.90;;;;;;;15.82;100.00;99435.44;5046979;28;20131;-75
2023/03/13 08:14:06;;;;;;;9.40;3.47;;;;;;;15.85;100.00;99434.47;5047301;28;20044;-77
2023/03/13 08:16:33;;;;;;;5.88;2.40;;;;;;;15.80;100.00;99427.53;5047347;28;20055;-77
2023/03/13 08:19:03;;;;;;;10.52;3.80;;;;;;;15.72;100.00;99417.88;5046327;28;20095;-79
2023/03/13 08:21:32;;;;;;;9.80;3.47;;;;;;;15.71;100.00;99441.44;5045004;28;20045;-78
2023/03/13 08:24:04;;;;;;;7.65;2.40;;;;;;;16.01;100.00;99414.66;5045231;28;20041;-77
2023/03/13 08:26:33;;;;;;;5.55;1.83;;;;;;;16.16;100.00;99416.34;5047134;28;20505;-77
2023/03/13 08:29:02;;;;;;;11.15;2.47;;;;;;;16.09;100.00;99421.47;5045854;28;20525;-80
2023/03/13 08:31:34;;;;;;;4.63;2.17;;;;;;;15.94;100.00;99420.53;5050567;28;20049;-77
2023/03/13 08:34:00;;;;;;;5.88;1.20;;;;;;;16.23;100.00;99426.44;5048601;28;20067;-76
2023/03/13 08:36:30;;;;;;;9.45;2.17;;;;;;;16.26;100.00;99431.84;5046048;28;20613;-78
2023/03/13 08:38:59;;;;;;;11.55;3.78;;;;;;;16.08;100.00;99442.25;5042718;28;20061;-76
2023/03/13 08:41:28;;;;;;;10.95;3.58;;;;;;;16.22;100.00;99441.63;5039033;28;20423;-78
2023/03/13 08:43:56;;;;;;;5.63;2.40;;;;;;;16.43;100.00;99435.91;5045549;28;20052;-77
2023/03/13 08:46:23;;;;;;;6.32;2.75;;;;;;;16.45;100.00;99433.44;5046879;28;20045;-76
2023/03/13 08:48:54;;;;;;;14.85;4.45;;;;;;;15.95;100.00;99427.66;5046773;28;20099;-78
2023/03/13 08:51:23;;;;;;;8.70;3.00;;;;;;;16.65;100.00;99432.94;5046165;28;20507;-78
2023/03/13 08:53:50;;;;;;;8.43;3.13;;;;;;;16.69;100.00;99439.91;5045138;28;20529;-76
2023/03/13 08:56:20;;;;;;;9.77;3.72;;;;;;;16.57;100.00;99424.09;5050635;28;20566;-79
2023/03/13 08:58:52;;;;;;;11.57;4.25;;;;;;;16.11;100.00;99442.09;5048347;28;20059;-80
2023/03/13 09:01:23;;;;;;;8.65;2.38;;;;;;;16.36;100.00;99449.38;5044289;28;20056;-80
2023/03/13 09:03:51;;;;;;;7.63;3.70;;;;;;;16.01;100.00;99448.13;5048387;28;20057;-79
2023/03/13 09:06:18;;;;;;;11.27;3.05;;;;;;;16.81;100.00;99452.13;5046656;28;20049;-79
2023/03/13 09:08:44;;;;;;;9.82;2.78;;;;;;;16.55;100.00;99434.97;5046578;28;20048;-78
2023/03/13 09:11:13;;;;;;;9.27;3.40;;;;;;;16.93;100.00;99437.19;5046026;28;20051;-81
2023/03/13 09:13:43;;;;;;;12.05;3.58;;;;;;;16.95;100.00;99445.88;5045637;28;20041;-77
2023/03/13 09:16:14;;;;;;;11.98;3.67;;;;;;;16.80;100.00;99425.41;5049371;28;20074;-80
2023/03/13 09:18:42;;;;;;;5.07;2.08;;;;;;;17.08;100.00;99421.31;5045495;28;20469;-80
2023/03/13 09:21:22;;;;;;;5.93;2.58;;;;;;;17.19;100.00;99396.41;5059230;28;20070;-78
2023/03/13 09:23:50;;;;;;;2.38;1.17;;;;;;;17.51;100.00;99402.00;5045266;28;20136;-79
2023/03/13 09:26:18;;;;;;;12.00;3.05;;;;;;;17.28;100.00;99405.50;5045776;28;20051;-77
2023/03/13 09:28:49;;;;;;;11.30;3.38;;;;;;;17.45;100.00;99409.50;5047411;28;20565;-78
2023/03/13 09:31:18;;;;;;;6.40;2.83;;;;;;;17.53;100.00;99404.31;5047308;28;20654;-79
2023/03/13 09:33:46;;;;;;;10.13;2.60;;;;;;;17.86;100.00;99382.66;5048673;28;20638;-79
2023/03/13 09:36:13;;;;;;;7.43;2.35;;;;;;;17.81;100.00;99405.69;5043123;28;20064;-79
2023/03/13 09:38:40;;;;;;;3.78;1.75;;;;;;;18.05;100.00;99389.63;5047818;28;20049;-79
2023/03/13 09:41:16;;;;;;;8.80;2.75;;;;;;;17.98;100.00;99404.00;5043826;28;20052;-80
2023/03/13 09:44:04;;;;;;;10.30;2.72;;;;;;;17.68;100.00;99396.75;5049539;28;20515;-78
2023/03/13 09:46:34;;;;;;;12.27;3.08;;;;;;;17.49;100.00;99412.88;5036585;28;20052;-79
2023/03/13 09:49:12;;;;;;;12.40;4.43;;;;;;;17.59;100.00;99382.84;5044705;28;20048;-79
2023/03/13 09:51:43;;;;;;;7.63;2.00;;;;;;;18.27;100.00;99390.06;5047561;28;20049;-80
2023/03/13 09:54:32;;;;;;;9.98;3.10;;;;;;;18.22;100.00;99401.16;5044691;28;20056;-78
2023/03/13 09:57:10;;;;;;;9.82;3.70;;;;;;;17.67;100.00;99370.81;5048884;28;20105;-77
2023/03/13 09:59:42;;;;;;;14.10;4.18;;;;;;;17.63;100.00;99377.84;5046146;28;20052;-78
2023/03/13 10:02:24;;;;;;;7.93;2.45;;;;;;;17.72;100.00;99400.16;5051676;28;20143;-78
2023/03/13 10:05:04;;;;;;;5.28;2.10;;;;;;;17.84;100.00;99385.16;5057064;28;20084;-79
2023/03/13 10:07:30;;;;;;;6.43;2.05;;;;;;;17.69;100.00;99389.94;5051127;28;20052;-78
2023/03/13 10:09:59;;;;;;;9.75;3.60;;;;;;;17.53;100.00;99376.38;5053793;28;20049;-77
2023/03/13 10:12:40;;;;;;;10.75;3.53;;;;;;;17.61;100.00;99378.31;5046767;28;20049;-80
2023/03/13 10:15:34;;;;;;;10.50;2.78;;;;;;;17.90;100.00;99372.03;5046672;28;20511;-79
2023/03/13 10:18:12;;;;;;;6.32;2.60;;;;;;;18.02;100.00;99371.78;5046942;28;20053;-78
2023/03/13 10:20:39;;;;;;;3.88;1.85;;;;;;;18.46;100.00;99371.84;5057646;28;20044;-75
2023/03/13 10:23:15;;;;;;;7.72;2.78;;;;;;;18.39;100.00;99357.47;5047041;28;20064;-78
2023/03/13 10:25:41;;;;;;;9.10;2.95;;;;;;;18.35;100.00;99363.22;5039980;28;20053;-77
2023/03/13 10:28:12;;;;;;;10.52;3.03;;;;;;;18.28;100.00;99366.41;5034708;28;20053;-78
2023/03/13 10:30:45;;;;;;;7.72;2.53;;;;;;;18.48;100.00;99352.53;5045049;28;20144;-80
2023/03/13 10:33:11;;;;;;;7.57;2.65;;;;;;;18.20;100.00;99342.06;5047994;28;20160;-77
2023/03/13 10:35:41;;;;;;;8.07;2.25;;;;;;;18.54;100.00;99339.41;5044708;28;20049;-77
2023/03/13 10:38:10;;;;;;;10.70;2.83;;;;;;;18.77;100.00;99346.16;5046548;28;20075;-78
2023/03/13 10:40:37;;;;;;;3.55;1.92;;;;;;;18.64;100.00;99326.84;5046921;28;20053;-77
2023/03/13 10:43:03;;;;;;;8.35;2.45;;;;;;;18.30;100.00;99338.72;5046264;28;20060;-77
2023/03/13 10:45:34;;;;;;;9.23;3.30;;;;;;;18.43;100.00;99339.22;5045259;28;20419;-76
2023/03/13 10:48:12;;;;;;;11.93;3.20;;;;;;;18.33;100.00;99331.38;5046575;28;20399;-76
2023/03/13 10:50:43;;;;;;;8.88;2.15;;;;;;;18.14;100.00;99335.59;5043565;28;20052;-77
2023/03/13 10:53:22;;;;;;;8.52;3.03;;;;;;;18.02;100.00;99317.81;5042787;28;20477;-77
2023/03/13 10:55:51;;;;;;;7.43;3.33;;;;;;;18.19;100.00;99341.28;5043818;28;20083;-78
2023/03/13 10:58:34;;;;;;;6.97;2.70;;;;;;;18.62;100.00;99320.94;5045662;28;20052;-77
2023/03/13 11:01:20;;;;;;;10.43;2.45;;;;;;;19.05;100.00;99322.88;5047552;28;20055;-74
2023/03/13 11:03:49;;;;;;;11.52;3.65;;;;;;;18.64;100.00;99324.03;5048465;28;20171;-77
2023/03/13 11:06:21;;;;;;;7.28;2.75;;;;;;;19.29;100.00;99308.72;5046499;28;20053;-78
2023/03/13 11:08:47;;;;;;;7.00;2.75;;;;;;;19.02;100.00;99290.22;5046782;28;20586;-77
2023/03/13 11:11:19;;;;;;;7.65;2.70;;;;;;;19.06;100.00;99298.41;5042504;28;20095;-77
2023/03/13 11:13:45;;;;;;;9.32;2.30;;;;;;;19.26;100.00;99284.44;5049146;28;20053;-78
2023/03/13 11:16:25;;;;;;;6.38;2.03;;;;;;;19.13;100.00;99270.00;5048538;28;20053;-78
2023/03/13 11:19:08;;;;;;;7.35;2.30;;;;;;;18.88;100.00;99290.25;5045556;28;20076;-77
2023/03/13 11:21:49;;;;;;;7.13;2.35;;;;;;;19.13;100.00;99276.34;5038261;28;20053;-77
2023/03/13 11:24:31;;;;;;;5.85;2.00;;;;;;;19.04;100.00;99276.47;5047835;28;20048;-76
2023/03/13 11:27:25;;;;;;;6.22;2.38;;;;;;;18.90;100.00;99293.38;5029569;28;20582;-75
2023/03/13 11:29:54;;;;;;;6.00;2.22;;;;;;;18.95;100.00;99301.06;5049431;28;20585;-78
2023/03/13 11:32:33;;;;;;;6.80;2.58;;;;;;;18.93;100.00;99281.19;5052179;28;20049;-74
2023/03/13 11:35:06;;;;;;;6.97;1.98;;;;;;;19.04;100.00;99262.47;5037148;28;20053;-78